sensor_id;sensor_type;location;lat;lon;timestamp;P1;durP1;ratioP1;P2;durP2;ratioP2
7977;SDS011;4034;48.004;10.902;2022-08-19T00:01:08;19.93;;;17.80;;
7977;SDS011;4034;48.004;10.902;2022-08-19T00:03:34;17.80;;;16.00;;
7977;SDS011;4034;48.004;10.902;2022-08-19T00:06:00;19.83;;;17.83;;
7977;SDS011;4034;48.004;10.902;2022-08-19T00:08:26;20.27;;;18.03;;
7977;SDS011;4034;48.004;10.902;2022-08-19T00:10:52;19.93;;;17.30;;
7977;SDS011;4034;48.004;10.902;2022-08-19T00:13:18;20.43;;;18.23;;
7977;SDS011;4034;48.004;10.902;2022-08-19T00:15:44;21.63;;;19.33;;
7977;SDS011;4034;48.004;10.902;2022-08-19T00:18:10;21.03;;;18.80;;
7977;SDS011;4034;48.004;10.902;2022-08-19T00:20:36;20.13;;;18.13;;
7977;SDS011;4034;48.004;10.902;2022-08-19T00:23:05;18.13;;;16.27;;
7977;SDS011;4034;48.004;10.902;2022-08-19T00:25:31;19.70;;;17.40;;
7977;SDS011;4034;48.004;10.902;2022-08-19T00:27:58;18.63;;;16.70;;
7977;SDS011;4034;48.004;10.902;2022-08-19T00:30:24;17.00;;;15.23;;
7977;SDS011;4034;48.004;10.902;2022-08-19T00:32:52;18.03;;;16.13;;
7977;SDS011;4034;48.004;10.902;2022-08-19T00:35:21;20.17;;;16.33;;
7977;SDS011;4034;48.004;10.902;2022-08-19T00:37:48;20.27;;;17.77;;
7977;SDS011;4034;48.004;10.902;2022-08-19T00:40:14;17.33;;;15.47;;
7977;SDS011;4034;48.004;10.902;2022-08-19T00:42:41;18.17;;;16.33;;
7977;SDS011;4034;48.004;10.902;2022-08-19T00:45:10;16.57;;;14.87;;
7977;SDS011;4034;48.004;10.902;2022-08-19T00:47:36;15.97;;;14.43;;
7977;SDS011;4034;48.004;10.902;2022-08-19T00:50:02;17.73;;;15.93;;
7977;SDS011;4034;48.004;10.902;2022-08-19T00:52:29;17.93;;;14.20;;
7977;SDS011;4034;48.004;10.902;2022-08-19T00:54:58;15.00;;;13.50;;
7977;SDS011;4034;48.004;10.902;2022-08-19T00:57:32;14.37;;;13.03;;
7977;SDS011;4034;48.004;10.902;2022-08-19T01:00:00;14.77;;;13.17;;
7977;SDS011;4034;48.004;10.902;2022-08-19T01:02:27;13.70;;;12.40;;
7977;SDS011;4034;48.004;10.902;2022-08-19T01:04:54;13.67;;;12.27;;
7977;SDS011;4034;48.004;10.902;2022-08-19T01:07:20;11.73;;;10.53;;
7977;SDS011;4034;48.004;10.902;2022-08-19T01:09:46;11.93;;;10.83;;
7977;SDS011;4034;48.004;10.902;2022-08-19T01:12:12;11.20;;;10.20;;
7977;SDS011;4034;48.004;10.902;2022-08-19T01:14:39;9.60;;;8.70;;
7977;SDS011;4034;48.004;10.902;2022-08-19T01:17:06;10.83;;;9.90;;
7977;SDS011;4034;48.004;10.902;2022-08-19T01:19:37;10.20;;;9.20;;
7977;SDS011;4034;48.004;10.902;2022-08-19T01:24:42;9.53;;;8.73;;
7977;SDS011;4034;48.004;10.902;2022-08-19T01:27:08;9.23;;;8.43;;
7977;SDS011;4034;48.004;10.902;2022-08-19T01:29:36;9.63;;;8.80;;
7977;SDS011;4034;48.004;10.902;2022-08-19T01:32:02;9.77;;;8.97;;
7977;SDS011;4034;48.004;10.902;2022-08-19T01:34:28;9.90;;;8.90;;
7977;SDS011;4034;48.004;10.902;2022-08-19T01:36:54;10.10;;;9.20;;
7977;SDS011;4034;48.004;10.902;2022-08-19T01:39:21;8.77;;;8.00;;
7977;SDS011;4034;48.004;10.902;2022-08-19T01:41:49;8.77;;;7.90;;
7977;SDS011;4034;48.004;10.902;2022-08-19T01:44:15;10.23;;;9.23;;
7977;SDS011;4034;48.004;10.902;2022-08-19T01:46:46;9.03;;;8.23;;
7977;SDS011;4034;48.004;10.902;2022-08-19T01:49:12;9.23;;;8.20;;
7977;SDS011;4034;48.004;10.902;2022-08-19T01:51:38;8.83;;;8.13;;
7977;SDS011;4034;48.004;10.902;2022-08-19T01:54:05;9.60;;;8.63;;
7977;SDS011;4034;48.004;10.902;2022-08-19T01:56:30;9.57;;;8.77;;
7977;SDS011;4034;48.004;10.902;2022-08-19T01:59:00;8.90;;;8.07;;
7977;SDS011;4034;48.004;10.902;2022-08-19T02:01:27;9.30;;;8.53;;
7977;SDS011;4034;48.004;10.902;2022-08-19T02:03:57;9.30;;;8.50;;
7977;SDS011;4034;48.004;10.902;2022-08-19T02:06:23;9.53;;;8.73;;
7977;SDS011;4034;48.004;10.902;2022-08-19T02:08:49;9.27;;;8.37;;
7977;SDS011;4034;48.004;10.902;2022-08-19T02:11:20;10.23;;;9.33;;
7977;SDS011;4034;48.004;10.902;2022-08-19T02:13:46;10.23;;;9.33;;
7977;SDS011;4034;48.004;10.902;2022-08-19T02:16:14;10.43;;;9.53;;
7977;SDS011;4034;48.004;10.902;2022-08-19T02:18:40;11.07;;;9.97;;
7977;SDS011;4034;48.004;10.902;2022-08-19T02:21:06;10.47;;;9.57;;
7977;SDS011;4034;48.004;10.902;2022-08-19T02:23:32;11.00;;;10.10;;
7977;SDS011;4034;48.004;10.902;2022-08-19T02:25:58;11.50;;;10.60;;
7977;SDS011;4034;48.004;10.902;2022-08-19T02:28:24;9.73;;;8.83;;
7977;SDS011;4034;48.004;10.902;2022-08-19T02:30:50;10.80;;;9.87;;
7977;SDS011;4034;48.004;10.902;2022-08-19T02:33:16;11.10;;;10.10;;
7977;SDS011;4034;48.004;10.902;2022-08-19T02:35:42;11.23;;;10.23;;
7977;SDS011;4034;48.004;10.902;2022-08-19T02:38:09;12.33;;;11.10;;
7977;SDS011;4034;48.004;10.902;2022-08-19T02:40:51;11.63;;;10.53;;
7977;SDS011;4034;48.004;10.902;2022-08-19T02:43:17;12.33;;;11.30;;
7977;SDS011;4034;48.004;10.902;2022-08-19T02:45:45;11.67;;;10.57;;
7977;SDS011;4034;48.004;10.902;2022-08-19T02:48:12;12.57;;;11.37;;
7977;SDS011;4034;48.004;10.902;2022-08-19T02:50:39;10.90;;;10.00;;
7977;SDS011;4034;48.004;10.902;2022-08-19T02:53:05;12.97;;;11.70;;
7977;SDS011;4034;48.004;10.902;2022-08-19T02:55:33;13.63;;;11.43;;
7977;SDS011;4034;48.004;10.902;2022-08-19T02:57:59;13.00;;;11.80;;
7977;SDS011;4034;48.004;10.902;2022-08-19T03:00:25;13.43;;;12.23;;
7977;SDS011;4034;48.004;10.902;2022-08-19T03:02:52;12.73;;;11.53;;
7977;SDS011;4034;48.004;10.902;2022-08-19T03:05:18;12.80;;;11.60;;
7977;SDS011;4034;48.004;10.902;2022-08-19T03:07:44;13.87;;;12.47;;
7977;SDS011;4034;48.004;10.902;2022-08-19T03:10:11;12.70;;;11.33;;
7977;SDS011;4034;48.004;10.902;2022-08-19T03:12:37;13.07;;;11.87;;
7977;SDS011;4034;48.004;10.902;2022-08-19T03:15:06;12.83;;;11.63;;
7977;SDS011;4034;48.004;10.902;2022-08-19T03:17:33;12.67;;;11.43;;
7977;SDS011;4034;48.004;10.902;2022-08-19T03:19:59;14.13;;;12.23;;
7977;SDS011;4034;48.004;10.902;2022-08-19T03:22:25;12.87;;;11.00;;
7977;SDS011;4034;48.004;10.902;2022-08-19T03:24:51;10.97;;;9.90;;
7977;SDS011;4034;48.004;10.902;2022-08-19T03:27:18;11.27;;;10.27;;
7977;SDS011;4034;48.004;10.902;2022-08-19T03:29:44;12.67;;;10.63;;
7977;SDS011;4034;48.004;10.902;2022-08-19T03:32:10;11.70;;;10.57;;
7977;SDS011;4034;48.004;10.902;2022-08-19T03:34:37;11.27;;;10.30;;
7977;SDS011;4034;48.004;10.902;2022-08-19T03:37:05;12.30;;;11.10;;
7977;SDS011;4034;48.004;10.902;2022-08-19T03:39:31;12.30;;;11.00;;
7977;SDS011;4034;48.004;10.902;2022-08-19T03:41:57;11.90;;;10.80;;
7977;SDS011;4034;48.004;10.902;2022-08-19T03:44:27;11.90;;;10.87;;
7977;SDS011;4034;48.004;10.902;2022-08-19T03:46:55;12.33;;;10.43;;
7977;SDS011;4034;48.004;10.902;2022-08-19T03:49:22;11.83;;;10.80;;
7977;SDS011;4034;48.004;10.902;2022-08-19T03:51:49;12.37;;;11.17;;
7977;SDS011;4034;48.004;10.902;2022-08-19T03:54:16;11.97;;;10.77;;
7977;SDS011;4034;48.004;10.902;2022-08-19T03:56:43;12.33;;;11.27;;
7977;SDS011;4034;48.004;10.902;2022-08-19T03:59:11;13.57;;;11.33;;
7977;SDS011;4034;48.004;10.902;2022-08-19T04:01:38;13.03;;;11.80;;
7977;SDS011;4034;48.004;10.902;2022-08-19T04:04:04;13.23;;;11.97;;
7977;SDS011;4034;48.004;10.902;2022-08-19T04:06:31;14.50;;;13.20;;
7977;SDS011;4034;48.004;10.902;2022-08-19T04:08:59;18.30;;;14.53;;
7977;SDS011;4034;48.004;10.902;2022-08-19T04:11:31;14.77;;;13.43;;
7977;SDS011;4034;48.004;10.902;2022-08-19T04:13:59;16.70;;;15.00;;
7977;SDS011;4034;48.004;10.902;2022-08-19T04:16:26;19.17;;;14.90;;
7977;SDS011;4034;48.004;10.902;2022-08-19T04:18:55;18.67;;;16.73;;
7977;SDS011;4034;48.004;10.902;2022-08-19T04:21:23;19.67;;;17.60;;
7977;SDS011;4034;48.004;10.902;2022-08-19T04:23:50;19.83;;;16.70;;
7977;SDS011;4034;48.004;10.902;2022-08-19T04:26:18;20.57;;;16.57;;
7977;SDS011;4034;48.004;10.902;2022-08-19T04:28:45;18.10;;;16.33;;
7977;SDS011;4034;48.004;10.902;2022-08-19T04:31:15;18.70;;;16.80;;
7977;SDS011;4034;48.004;10.902;2022-08-19T04:33:42;18.07;;;16.17;;
7977;SDS011;4034;48.004;10.902;2022-08-19T04:36:16;19.83;;;17.73;;
7977;SDS011;4034;48.004;10.902;2022-08-19T04:38:44;22.97;;;18.97;;
7977;SDS011;4034;48.004;10.902;2022-08-19T04:41:10;21.10;;;18.00;;
7977;SDS011;4034;48.004;10.902;2022-08-19T04:43:59;23.70;;;19.40;;
7977;SDS011;4034;48.004;10.902;2022-08-19T04:46:25;22.17;;;18.67;;
7977;SDS011;4034;48.004;10.902;2022-08-19T04:48:51;21.80;;;19.17;;
7977;SDS011;4034;48.004;10.902;2022-08-19T04:51:18;21.97;;;19.50;;
7977;SDS011;4034;48.004;10.902;2022-08-19T04:53:45;24.23;;;21.37;;
7977;SDS011;4034;48.004;10.902;2022-08-19T04:56:12;23.97;;;21.47;;
7977;SDS011;4034;48.004;10.902;2022-08-19T04:58:40;24.13;;;21.47;;
7977;SDS011;4034;48.004;10.902;2022-08-19T05:01:07;24.87;;;21.23;;
7977;SDS011;4034;48.004;10.902;2022-08-19T05:03:33;27.00;;;22.33;;
7977;SDS011;4034;48.004;10.902;2022-08-19T05:06:06;26.63;;;21.80;;
7977;SDS011;4034;48.004;10.902;2022-08-19T05:08:33;27.50;;;23.53;;
7977;SDS011;4034;48.004;10.902;2022-08-19T05:10:59;28.37;;;23.60;;
7977;SDS011;4034;48.004;10.902;2022-08-19T05:13:25;28.83;;;23.20;;
7977;SDS011;4034;48.004;10.902;2022-08-19T05:15:58;29.07;;;23.13;;
7977;SDS011;4034;48.004;10.902;2022-08-19T05:18:24;27.97;;;23.07;;
7977;SDS011;4034;48.004;10.902;2022-08-19T05:21:13;27.17;;;23.90;;
7977;SDS011;4034;48.004;10.902;2022-08-19T05:23:59;26.47;;;22.73;;
7977;SDS011;4034;48.004;10.902;2022-08-19T05:26:25;27.17;;;23.57;;
7977;SDS011;4034;48.004;10.902;2022-08-19T05:28:52;25.93;;;23.00;;
7977;SDS011;4034;48.004;10.902;2022-08-19T05:31:18;28.27;;;22.60;;
7977;SDS011;4034;48.004;10.902;2022-08-19T05:33:44;28.23;;;24.73;;
7977;SDS011;4034;48.004;10.902;2022-08-19T05:36:10;28.77;;;23.53;;
7977;SDS011;4034;48.004;10.902;2022-08-19T05:38:37;28.40;;;23.73;;
7977;SDS011;4034;48.004;10.902;2022-08-19T05:41:08;27.50;;;24.60;;
7977;SDS011;4034;48.004;10.902;2022-08-19T05:43:34;32.50;;;26.93;;
7977;SDS011;4034;48.004;10.902;2022-08-19T05:46:00;36.70;;;29.13;;
7977;SDS011;4034;48.004;10.902;2022-08-19T05:48:26;40.30;;;29.53;;
7977;SDS011;4034;48.004;10.902;2022-08-19T05:50:52;38.97;;;28.93;;
7977;SDS011;4034;48.004;10.902;2022-08-19T05:53:18;38.57;;;30.07;;
7977;SDS011;4034;48.004;10.902;2022-08-19T05:55:44;44.40;;;31.77;;
7977;SDS011;4034;48.004;10.902;2022-08-19T05:58:10;40.93;;;32.60;;
7977;SDS011;4034;48.004;10.902;2022-08-19T06:00:37;42.97;;;31.67;;
7977;SDS011;4034;48.004;10.902;2022-08-19T06:03:03;39.10;;;30.10;;
7977;SDS011;4034;48.004;10.902;2022-08-19T06:05:30;38.30;;;29.30;;
7977;SDS011;4034;48.004;10.902;2022-08-19T06:07:56;37.33;;;30.20;;
7977;SDS011;4034;48.004;10.902;2022-08-19T06:10:23;35.63;;;31.43;;
7977;SDS011;4034;48.004;10.902;2022-08-19T06:12:50;41.20;;;30.33;;
7977;SDS011;4034;48.004;10.902;2022-08-19T06:15:16;41.83;;;33.63;;
7977;SDS011;4034;48.004;10.902;2022-08-19T06:17:42;42.10;;;33.67;;
7977;SDS011;4034;48.004;10.902;2022-08-19T06:20:12;48.00;;;34.70;;
7977;SDS011;4034;48.004;10.902;2022-08-19T06:22:43;46.07;;;34.10;;
7977;SDS011;4034;48.004;10.902;2022-08-19T06:25:09;46.93;;;34.40;;
7977;SDS011;4034;48.004;10.902;2022-08-19T06:27:35;50.00;;;35.60;;
7977;SDS011;4034;48.004;10.902;2022-08-19T06:30:02;49.47;;;34.70;;
7977;SDS011;4034;48.004;10.902;2022-08-19T06:32:29;55.13;;;36.83;;
7977;SDS011;4034;48.004;10.902;2022-08-19T06:34:55;48.63;;;34.53;;
7977;SDS011;4034;48.004;10.902;2022-08-19T06:37:21;47.67;;;34.83;;
7977;SDS011;4034;48.004;10.902;2022-08-19T06:39:47;49.23;;;34.87;;
7977;SDS011;4034;48.004;10.902;2022-08-19T06:42:13;50.77;;;35.33;;
7977;SDS011;4034;48.004;10.902;2022-08-19T06:44:43;47.67;;;35.63;;
7977;SDS011;4034;48.004;10.902;2022-08-19T06:47:12;49.30;;;36.37;;
7977;SDS011;4034;48.004;10.902;2022-08-19T06:49:38;46.97;;;35.40;;
7977;SDS011;4034;48.004;10.902;2022-08-19T06:52:04;49.53;;;35.20;;
7977;SDS011;4034;48.004;10.902;2022-08-19T06:54:31;46.10;;;34.50;;
7977;SDS011;4034;48.004;10.902;2022-08-19T06:56:57;43.77;;;33.47;;
7977;SDS011;4034;48.004;10.902;2022-08-19T06:59:26;38.47;;;32.50;;
7977;SDS011;4034;48.004;10.902;2022-08-19T07:01:53;32.73;;;28.20;;
7977;SDS011;4034;48.004;10.902;2022-08-19T07:04:20;33.33;;;28.67;;
7977;SDS011;4034;48.004;10.902;2022-08-19T07:06:47;29.87;;;26.27;;
7977;SDS011;4034;48.004;10.902;2022-08-19T07:09:14;33.17;;;27.93;;
7977;SDS011;4034;48.004;10.902;2022-08-19T07:11:46;30.73;;;26.60;;
7977;SDS011;4034;48.004;10.902;2022-08-19T07:14:14;29.37;;;26.23;;
7977;SDS011;4034;48.004;10.902;2022-08-19T07:16:41;31.67;;;26.30;;
7977;SDS011;4034;48.004;10.902;2022-08-19T07:19:07;27.43;;;24.53;;
7977;SDS011;4034;48.004;10.902;2022-08-19T07:21:33;28.30;;;24.73;;
7977;SDS011;4034;48.004;10.902;2022-08-19T07:24:01;28.00;;;25.07;;
7977;SDS011;4034;48.004;10.902;2022-08-19T07:26:28;26.83;;;22.80;;
7977;SDS011;4034;48.004;10.902;2022-08-19T07:28:55;23.67;;;21.27;;
7977;SDS011;4034;48.004;10.902;2022-08-19T07:31:23;25.97;;;22.63;;
7977;SDS011;4034;48.004;10.902;2022-08-19T07:33:50;23.50;;;21.17;;
7977;SDS011;4034;48.004;10.902;2022-08-19T07:36:21;23.60;;;20.50;;
7977;SDS011;4034;48.004;10.902;2022-08-19T07:38:48;26.13;;;22.57;;
7977;SDS011;4034;48.004;10.902;2022-08-19T07:41:15;24.43;;;21.80;;
7977;SDS011;4034;48.004;10.902;2022-08-19T07:43:42;25.37;;;22.40;;
7977;SDS011;4034;48.004;10.902;2022-08-19T07:46:08;24.20;;;21.10;;
7977;SDS011;4034;48.004;10.902;2022-08-19T07:48:35;23.40;;;20.80;;
7977;SDS011;4034;48.004;10.902;2022-08-19T07:51:02;24.53;;;21.90;;
7977;SDS011;4034;48.004;10.902;2022-08-19T07:53:35;24.03;;;21.43;;
7977;SDS011;4034;48.004;10.902;2022-08-19T07:56:07;26.40;;;22.37;;
7977;SDS011;4034;48.004;10.902;2022-08-19T07:58:36;26.03;;;22.50;;
7977;SDS011;4034;48.004;10.902;2022-08-19T08:01:03;23.87;;;20.87;;
7977;SDS011;4034;48.004;10.902;2022-08-19T08:03:30;23.30;;;20.50;;
7977;SDS011;4034;48.004;10.902;2022-08-19T08:06:34;24.43;;;20.33;;
7977;SDS011;4034;48.004;10.902;2022-08-19T08:09:20;24.30;;;20.50;;
7977;SDS011;4034;48.004;10.902;2022-08-19T08:11:48;24.27;;;20.53;;
7977;SDS011;4034;48.004;10.902;2022-08-19T08:14:20;22.77;;;20.30;;
7977;SDS011;4034;48.004;10.902;2022-08-19T08:16:47;23.27;;;20.77;;
7977;SDS011;4034;48.004;10.902;2022-08-19T08:19:16;23.30;;;18.87;;
7977;SDS011;4034;48.004;10.902;2022-08-19T08:21:42;21.07;;;18.87;;
7977;SDS011;4034;48.004;10.902;2022-08-19T08:24:08;20.13;;;17.43;;
7977;SDS011;4034;48.004;10.902;2022-08-19T08:26:34;20.13;;;16.83;;
7977;SDS011;4034;48.004;10.902;2022-08-19T08:29:00;19.93;;;17.70;;
7977;SDS011;4034;48.004;10.902;2022-08-19T08:31:27;18.17;;;16.27;;
7977;SDS011;4034;48.004;10.902;2022-08-19T08:33:53;19.67;;;17.27;;
7977;SDS011;4034;48.004;10.902;2022-08-19T08:36:19;19.03;;;16.63;;
7977;SDS011;4034;48.004;10.902;2022-08-19T08:38:45;19.07;;;16.43;;
7977;SDS011;4034;48.004;10.902;2022-08-19T08:43:44;19.10;;;17.10;;
7977;SDS011;4034;48.004;10.902;2022-08-19T08:46:15;19.67;;;16.77;;
7977;SDS011;4034;48.004;10.902;2022-08-19T08:48:46;21.43;;;17.53;;
7977;SDS011;4034;48.004;10.902;2022-08-19T08:51:20;19.77;;;17.43;;
7977;SDS011;4034;48.004;10.902;2022-08-19T08:53:49;19.67;;;17.67;;
7977;SDS011;4034;48.004;10.902;2022-08-19T08:56:16;20.10;;;17.90;;
7977;SDS011;4034;48.004;10.902;2022-08-19T08:58:45;20.25;;;18.10;;
7977;SDS011;4034;48.004;10.902;2022-08-19T09:01:13;21.93;;;17.97;;
7977;SDS011;4034;48.004;10.902;2022-08-19T09:03:42;18.80;;;16.57;;
7977;SDS011;4034;48.004;10.902;2022-08-19T09:15:08;19.30;;;16.10;;
7977;SDS011;4034;48.004;10.902;2022-08-19T09:17:06;16.23;;;14.57;;
7977;SDS011;4034;48.004;10.902;2022-08-19T09:19:33;19.70;;;17.10;;
7977;SDS011;4034;48.004;10.902;2022-08-19T09:21:59;17.70;;;15.87;;
7977;SDS011;4034;48.004;10.902;2022-08-19T09:24:26;18.90;;;16.90;;
7977;SDS011;4034;48.004;10.902;2022-08-19T09:26:52;18.87;;;16.80;;
7977;SDS011;4034;48.004;10.902;2022-08-19T09:29:18;17.40;;;15.53;;
7977;SDS011;4034;48.004;10.902;2022-08-19T09:31:45;15.93;;;14.33;;
7977;SDS011;4034;48.004;10.902;2022-08-19T09:34:11;16.50;;;13.37;;
7977;SDS011;4034;48.004;10.902;2022-08-19T09:36:37;15.83;;;13.37;;
7977;SDS011;4034;48.004;10.902;2022-08-19T09:39:04;16.10;;;14.03;;
7977;SDS011;4034;48.004;10.902;2022-08-19T09:41:30;15.97;;;14.47;;
7977;SDS011;4034;48.004;10.902;2022-08-19T09:43:57;16.63;;;15.00;;
7977;SDS011;4034;48.004;10.902;2022-08-19T09:46:25;18.47;;;15.67;;
7977;SDS011;4034;48.004;10.902;2022-08-19T09:48:52;18.83;;;14.77;;
7977;SDS011;4034;48.004;10.902;2022-08-19T09:51:22;17.93;;;15.97;;
7977;SDS011;4034;48.004;10.902;2022-08-19T09:53:50;19.03;;;15.13;;
7977;SDS011;4034;48.004;10.902;2022-08-19T09:56:19;18.80;;;16.07;;
7977;SDS011;4034;48.004;10.902;2022-08-19T09:58:45;20.10;;;17.13;;
7977;SDS011;4034;48.004;10.902;2022-08-19T10:01:18;21.57;;;17.80;;
7977;SDS011;4034;48.004;10.902;2022-08-19T10:03:46;19.57;;;17.57;;
7977;SDS011;4034;48.004;10.902;2022-08-19T10:06:13;19.40;;;16.73;;
7977;SDS011;4034;48.004;10.902;2022-08-19T13:40:10;2.97;;;2.87;;
7977;SDS011;4034;48.004;10.902;2022-08-19T13:42:37;2.90;;;2.70;;
7977;SDS011;4034;48.004;10.902;2022-08-19T13:45:04;3.47;;;3.27;;
7977;SDS011;4034;48.004;10.902;2022-08-19T13:50:07;2.50;;;2.40;;
7977;SDS011;4034;48.004;10.902;2022-08-19T13:52:33;2.63;;;2.53;;
7977;SDS011;4034;48.004;10.902;2022-08-19T13:54:59;2.50;;;2.40;;
7977;SDS011;4034;48.004;10.902;2022-08-19T13:57:25;3.07;;;2.97;;
7977;SDS011;4034;48.004;10.902;2022-08-19T13:59:51;2.90;;;2.80;;
7977;SDS011;4034;48.004;10.902;2022-08-19T14:02:17;2.47;;;2.27;;
7977;SDS011;4034;48.004;10.902;2022-08-19T14:04:43;2.93;;;2.60;;
7977;SDS011;4034;48.004;10.902;2022-08-19T14:07:09;3.27;;;3.13;;
7977;SDS011;4034;48.004;10.902;2022-08-19T14:09:35;2.50;;;2.40;;
7977;SDS011;4034;48.004;10.902;2022-08-19T14:12:01;3.17;;;2.97;;
7977;SDS011;4034;48.004;10.902;2022-08-19T14:14:28;2.93;;;2.70;;
7977;SDS011;4034;48.004;10.902;2022-08-19T14:16:54;2.77;;;2.67;;
7977;SDS011;4034;48.004;10.902;2022-08-19T14:19:20;5.47;;;2.00;;
7977;SDS011;4034;48.004;10.902;2022-08-19T14:21:46;2.10;;;2.00;;
7977;SDS011;4034;48.004;10.902;2022-08-19T14:24:12;2.20;;;2.10;;
7977;SDS011;4034;48.004;10.902;2022-08-19T14:26:38;1.97;;;1.90;;
7977;SDS011;4034;48.004;10.902;2022-08-19T14:29:04;1.40;;;1.40;;
7977;SDS011;4034;48.004;10.902;2022-08-19T14:31:30;1.60;;;1.60;;
7977;SDS011;4034;48.004;10.902;2022-08-19T14:33:56;2.00;;;2.00;;
7977;SDS011;4034;48.004;10.902;2022-08-19T14:36:22;1.80;;;1.80;;
7977;SDS011;4034;48.004;10.902;2022-08-19T14:38:48;2.00;;;1.93;;
7977;SDS011;4034;48.004;10.902;2022-08-19T14:41:19;1.70;;;1.70;;
7977;SDS011;4034;48.004;10.902;2022-08-19T14:43:46;1.43;;;1.43;;
7977;SDS011;4034;48.004;10.902;2022-08-19T14:46:13;1.50;;;1.50;;
7977;SDS011;4034;48.004;10.902;2022-08-19T14:48:40;1.50;;;1.40;;
7977;SDS011;4034;48.004;10.902;2022-08-19T14:51:06;1.60;;;1.60;;
7977;SDS011;4034;48.004;10.902;2022-08-19T14:53:33;2.40;;;1.50;;
7977;SDS011;4034;48.004;10.902;2022-08-19T14:55:59;1.30;;;1.30;;
7977;SDS011;4034;48.004;10.902;2022-08-19T14:58:25;2.30;;;1.40;;
7977;SDS011;4034;48.004;10.902;2022-08-19T15:00:51;1.30;;;1.17;;
7977;SDS011;4034;48.004;10.902;2022-08-19T15:03:17;1.60;;;1.07;;
7977;SDS011;4034;48.004;10.902;2022-08-19T15:05:44;1.70;;;1.60;;
7977;SDS011;4034;48.004;10.902;2022-08-19T15:08:10;1.57;;;1.57;;
7977;SDS011;4034;48.004;10.902;2022-08-19T15:10:37;1.50;;;1.50;;
7977;SDS011;4034;48.004;10.902;2022-08-19T15:13:04;2.00;;;1.90;;
7977;SDS011;4034;48.004;10.902;2022-08-19T15:15:30;1.80;;;1.80;;
7977;SDS011;4034;48.004;10.902;2022-08-19T15:17:56;2.00;;;2.00;;
7977;SDS011;4034;48.004;10.902;2022-08-19T15:20:27;2.20;;;2.10;;
7977;SDS011;4034;48.004;10.902;2022-08-19T15:22:53;1.77;;;1.77;;
7977;SDS011;4034;48.004;10.902;2022-08-19T15:25:19;1.75;;;1.75;;
7977;SDS011;4034;48.004;10.902;2022-08-19T15:27:46;1.90;;;1.90;;
7977;SDS011;4034;48.004;10.902;2022-08-19T15:30:12;1.93;;;1.83;;
7977;SDS011;4034;48.004;10.902;2022-08-19T15:32:43;1.50;;;1.50;;
7977;SDS011;4034;48.004;10.902;2022-08-19T15:35:09;1.80;;;1.80;;
7977;SDS011;4034;48.004;10.902;2022-08-19T15:37:35;1.90;;;1.90;;
7977;SDS011;4034;48.004;10.902;2022-08-19T15:40:01;1.83;;;1.83;;
7977;SDS011;4034;48.004;10.902;2022-08-19T15:42:27;2.20;;;2.10;;
7977;SDS011;4034;48.004;10.902;2022-08-19T15:44:53;1.60;;;1.60;;
7977;SDS011;4034;48.004;10.902;2022-08-19T15:47:20;1.70;;;1.70;;
7977;SDS011;4034;48.004;10.902;2022-08-19T15:49:46;1.80;;;1.80;;
7977;SDS011;4034;48.004;10.902;2022-08-19T15:52:12;1.83;;;1.80;;
7977;SDS011;4034;48.004;10.902;2022-08-19T15:54:38;1.90;;;1.80;;
7977;SDS011;4034;48.004;10.902;2022-08-19T15:57:04;2.00;;;2.00;;
7977;SDS011;4034;48.004;10.902;2022-08-19T15:59:46;3.23;;;1.70;;
7977;SDS011;4034;48.004;10.902;2022-08-19T16:02:31;2.23;;;2.20;;
7977;SDS011;4034;48.004;10.902;2022-08-19T16:05:17;2.13;;;2.03;;
7977;SDS011;4034;48.004;10.902;2022-08-19T16:08:02;2.40;;;2.30;;
7977;SDS011;4034;48.004;10.902;2022-08-19T16:10:28;3.00;;;2.80;;
7977;SDS011;4034;48.004;10.902;2022-08-19T16:12:55;3.30;;;3.10;;
7977;SDS011;4034;48.004;10.902;2022-08-19T16:15:21;2.60;;;2.50;;
7977;SDS011;4034;48.004;10.902;2022-08-19T16:17:47;2.53;;;2.43;;
7977;SDS011;4034;48.004;10.902;2022-08-19T16:20:13;3.10;;;3.00;;
7977;SDS011;4034;48.004;10.902;2022-08-19T16:22:40;2.10;;;2.00;;
7977;SDS011;4034;48.004;10.902;2022-08-19T16:25:07;3.03;;;2.93;;
7977;SDS011;4034;48.004;10.902;2022-08-19T16:27:33;3.37;;;3.17;;
7977;SDS011;4034;48.004;10.902;2022-08-19T16:30:00;2.90;;;2.80;;
7977;SDS011;4034;48.004;10.902;2022-08-19T16:32:26;3.13;;;2.90;;
7977;SDS011;4034;48.004;10.902;2022-08-19T16:34:52;3.33;;;3.23;;
7977;SDS011;4034;48.004;10.902;2022-08-19T16:37:18;3.67;;;3.50;;
7977;SDS011;4034;48.004;10.902;2022-08-19T16:39:45;4.20;;;4.00;;
7977;SDS011;4034;48.004;10.902;2022-08-19T16:42:14;4.00;;;3.80;;
7977;SDS011;4034;48.004;10.902;2022-08-19T16:44:41;4.50;;;4.30;;
7977;SDS011;4034;48.004;10.902;2022-08-19T16:47:07;5.03;;;4.63;;
7977;SDS011;4034;48.004;10.902;2022-08-19T16:49:33;5.13;;;4.83;;
7977;SDS011;4034;48.004;10.902;2022-08-19T16:51:59;4.90;;;4.60;;
7977;SDS011;4034;48.004;10.902;2022-08-19T16:54:27;7.77;;;4.80;;
7977;SDS011;4034;48.004;10.902;2022-08-19T16:56:53;3.70;;;3.60;;
7977;SDS011;4034;48.004;10.902;2022-08-19T16:59:20;2.80;;;2.70;;
7977;SDS011;4034;48.004;10.902;2022-08-19T17:01:48;3.73;;;3.53;;
7977;SDS011;4034;48.004;10.902;2022-08-19T17:04:17;4.40;;;4.20;;
7977;SDS011;4034;48.004;10.902;2022-08-19T17:06:43;4.50;;;4.10;;
7977;SDS011;4034;48.004;10.902;2022-08-19T17:09:09;4.17;;;3.90;;
7977;SDS011;4034;48.004;10.902;2022-08-19T17:11:36;4.43;;;4.03;;
7977;SDS011;4034;48.004;10.902;2022-08-19T17:14:03;3.60;;;3.30;;
7977;SDS011;4034;48.004;10.902;2022-08-19T17:16:30;4.87;;;4.57;;
7977;SDS011;4034;48.004;10.902;2022-08-19T17:18:58;4.57;;;4.27;;
7977;SDS011;4034;48.004;10.902;2022-08-19T17:21:25;5.13;;;4.83;;
7977;SDS011;4034;48.004;10.902;2022-08-19T17:23:53;5.03;;;4.73;;
7977;SDS011;4034;48.004;10.902;2022-08-19T17:26:19;6.13;;;5.63;;
7977;SDS011;4034;48.004;10.902;2022-08-19T17:28:46;7.43;;;6.83;;
7977;SDS011;4034;48.004;10.902;2022-08-19T17:31:13;7.93;;;7.13;;
7977;SDS011;4034;48.004;10.902;2022-08-19T17:33:39;9.67;;;7.80;;
7977;SDS011;4034;48.004;10.902;2022-08-19T17:36:05;8.70;;;7.93;;
7977;SDS011;4034;48.004;10.902;2022-08-19T17:38:32;9.70;;;9.00;;
7977;SDS011;4034;48.004;10.902;2022-08-19T17:41:00;9.07;;;8.27;;
7977;SDS011;4034;48.004;10.902;2022-08-19T17:43:29;9.47;;;8.60;;
7977;SDS011;4034;48.004;10.902;2022-08-19T17:45:57;10.50;;;9.80;;
7977;SDS011;4034;48.004;10.902;2022-08-19T17:48:26;10.07;;;9.17;;
7977;SDS011;4034;48.004;10.902;2022-08-19T17:50:52;8.83;;;8.03;;
7977;SDS011;4034;48.004;10.902;2022-08-19T17:53:18;9.53;;;8.73;;
7977;SDS011;4034;48.004;10.902;2022-08-19T17:55:44;9.90;;;9.10;;
7977;SDS011;4034;48.004;10.902;2022-08-19T17:58:10;10.27;;;9.47;;
7977;SDS011;4034;48.004;10.902;2022-08-19T18:00:36;10.73;;;9.67;;
7977;SDS011;4034;48.004;10.902;2022-08-19T18:03:03;10.43;;;9.43;;
7977;SDS011;4034;48.004;10.902;2022-08-19T18:05:31;9.47;;;8.70;;
7977;SDS011;4034;48.004;10.902;2022-08-19T18:07:57;9.53;;;8.83;;
7977;SDS011;4034;48.004;10.902;2022-08-19T18:10:24;9.73;;;9.03;;
7977;SDS011;4034;48.004;10.902;2022-08-19T18:12:51;9.53;;;8.77;;
7977;SDS011;4034;48.004;10.902;2022-08-19T18:15:18;9.63;;;8.87;;
7977;SDS011;4034;48.004;10.902;2022-08-19T18:17:44;8.97;;;8.27;;
7977;SDS011;4034;48.004;10.902;2022-08-19T18:20:11;10.17;;;9.30;;
7977;SDS011;4034;48.004;10.902;2022-08-19T18:22:38;9.87;;;9.07;;
7977;SDS011;4034;48.004;10.902;2022-08-19T18:25:15;9.70;;;8.90;;
7977;SDS011;4034;48.004;10.902;2022-08-19T18:27:43;9.53;;;8.73;;
7977;SDS011;4034;48.004;10.902;2022-08-19T18:30:10;10.23;;;9.37;;
7977;SDS011;4034;48.004;10.902;2022-08-19T18:32:37;9.17;;;8.47;;
7977;SDS011;4034;48.004;10.902;2022-08-19T18:35:08;9.83;;;9.10;;